Ital Oriente — A8LN2 — position and weather

sailwx.info

Track history (hours):
 
Tides and Currents Weather Stations Pressure Air Temp Water Temp Dewpoint Dewpoint Depression Visibility Wind Speed Wind Dir Waves Ship Positions

Ital Oriente

Last reported at 2014-Oct-25 23:13 UTC. Time now 2014-Oct-26 00:30 UTC.
Position N 37°47' E 024°22'.

Length 222 m; draft 8 m.

Type: Cargo ship. MMSI: 636091278.

Date/timePositionNaut miles runAvg speedWind from/ knotsBaromVisibWave heightAir tempDewpointWater temp
2014-Oct-25 23:13N 37°47' E 024°22'711.0
2014-Oct-25 22:33N 37°52' E 024°29'2410.8
2014-Oct-25 20:20N 38°07' E 024°53'8 2.0
2014-Oct-25 16:32N 38°15' E 024°52'  
2014-Oct-23 02:13N 39°39' E 023°59'811.4
2014-Oct-23 01:32N 39°36' E 024°08'90 2.3
2014-Oct-21 09:33N 39°03' E 025°57'1919.1
2014-Oct-21 08:33N 39°19' E 025°44'2221.5
2014-Oct-21 07:33N 39°40' E 025°47'2221.6
2014-Oct-21 06:33N 39°60' E 025°58'4314.2
2014-Oct-21 03:31N 40°25' E 026°44'88 5.1
2014-Oct-20 10:18N 40°54' E 028°33'8614.7
2014-Oct-20 04:24N 40°26' E 026°45'6911.5
2014-Oct-19 22:24N 39°36' E 025°41'11516.4
2014-Oct-19 15:21N 37°54' E 024°33'2916.2
2014-Oct-19 13:33N 37°35' E 024°04'1716.8
2014-Oct-19 12:33N 37°39' E 023°44'1717.3
2014-Oct-19 11:34N 37°55' E 023°37'2 2.2
2014-Oct-19 10:29N 37°57' E 023°35'0 0.0
2014-Oct-19 09:32N 37°57' E 023°35'0 0.0
2014-Oct-19 08:32N 37°57' E 023°35'0 0.0
2014-Oct-19 07:32N 37°57' E 023°35'0 0.0
2014-Oct-19 06:32N 37°57' E 023°35'0 0.0
2014-Oct-19 05:32N 37°57' E 023°35'0 0.0
2014-Oct-19 04:32N 37°57' E 023°35'0 0.0
2014-Oct-19 03:32N 37°57' E 023°35'0 0.0
2014-Oct-19 02:32N 37°57' E 023°35'0 0.0
2014-Oct-19 01:32N 37°57' E 023°35'0 0.0
2014-Oct-19 00:32N 37°57' E 023°35'0 0.0
2014-Oct-18 23:32N 37°57' E 023°35'0 0.0
2014-Oct-18 22:29N 37°57' E 023°35'0 0.0
2014-Oct-18 21:32N 37°57' E 023°35'0 0.0
2014-Oct-18 20:32N 37°57' E 023°35'0 0.0
2014-Oct-18 19:32N 37°57' E 023°35'0 0.0
2014-Oct-18 18:32N 37°57' E 023°35'0 0.0
2014-Oct-18 17:32N 37°57' E 023°35'0 0.0
2014-Oct-18 16:32N 37°57' E 023°35'0 0.0
2014-Oct-18 15:32N 37°57' E 023°35'0 0.0
2014-Oct-18 14:32N 37°57' E 023°35'0 0.0
2014-Oct-18 13:32N 37°57' E 023°35'0 0.0
2014-Oct-18 12:32N 37°57' E 023°35'0 0.0
2014-Oct-18 11:32N 37°57' E 023°35'1 0.9
2014-Oct-18 10:33N 37°57' E 023°35'7 6.6
2014-Oct-18 09:34N 37°51' E 023°39'1615.6
2014-Oct-18 08:33N 37°38' E 023°50'1915.4
2014-Oct-18 07:18N 37°41' E 024°14'1317.6
2014-Oct-18 06:33N 37°50' E 024°27'5316.1
2014-Oct-18 03:17N 38°41' E 024°11'131 3.5
2014-Oct-16 13:20N 40°38' E 022°54'  
Track history (hours):
 
Tides and Currents Weather Stations Pressure Air Temp Water Temp Dewpoint Dewpoint Depression Visibility Wind Speed Wind Dir Waves Ship Positions

Ital Oriente

Last reported at 2014-Oct-25 23:13 UTC. Time now 2014-Oct-26 00:30 UTC.
Position N 37°47' E 024°22'.

Length 222 m; draft 8 m.

Type: Cargo ship. MMSI: 636091278.

Date/timePositionNaut miles runAvg speedWind from/ knotsBaromVisibWave heightAir tempDewpointWater temp
2014-Oct-25 23:13N 37°47' E 024°22'711.0
2014-Oct-25 22:33N 37°52' E 024°29'2410.8
2014-Oct-25 20:20N 38°07' E 024°53'8 2.0
2014-Oct-25 16:32N 38°15' E 024°52'  
2014-Oct-23 02:13N 39°39' E 023°59'811.4
2014-Oct-23 01:32N 39°36' E 024°08'90 2.3
2014-Oct-21 09:33N 39°03' E 025°57'1919.1
2014-Oct-21 08:33N 39°19' E 025°44'2221.5
2014-Oct-21 07:33N 39°40' E 025°47'2221.6
2014-Oct-21 06:33N 39°60' E 025°58'4314.2
2014-Oct-21 03:31N 40°25' E 026°44'88 5.1
2014-Oct-20 10:18N 40°54' E 028°33'8614.7
2014-Oct-20 04:24N 40°26' E 026°45'6911.5
2014-Oct-19 22:24N 39°36' E 025°41'11516.4
2014-Oct-19 15:21N 37°54' E 024°33'2916.2
2014-Oct-19 13:33N 37°35' E 024°04'1716.8
2014-Oct-19 12:33N 37°39' E 023°44'1717.3
2014-Oct-19 11:34N 37°55' E 023°37'2 2.2
2014-Oct-19 10:29N 37°57' E 023°35'0 0.0
2014-Oct-19 09:32N 37°57' E 023°35'0 0.0
2014-Oct-19 08:32N 37°57' E 023°35'0 0.0
2014-Oct-19 07:32N 37°57' E 023°35'0 0.0
2014-Oct-19 06:32N 37°57' E 023°35'0 0.0
2014-Oct-19 05:32N 37°57' E 023°35'0 0.0
2014-Oct-19 04:32N 37°57' E 023°35'0 0.0
2014-Oct-19 03:32N 37°57' E 023°35'0 0.0
2014-Oct-19 02:32N 37°57' E 023°35'0 0.0
2014-Oct-19 01:32N 37°57' E 023°35'0 0.0
2014-Oct-19 00:32N 37°57' E 023°35'0 0.0
2014-Oct-18 23:32N 37°57' E 023°35'0 0.0
2014-Oct-18 22:29N 37°57' E 023°35'0 0.0
2014-Oct-18 21:32N 37°57' E 023°35'0 0.0
2014-Oct-18 20:32N 37°57' E 023°35'0 0.0
2014-Oct-18 19:32N 37°57' E 023°35'0 0.0
2014-Oct-18 18:32N 37°57' E 023°35'0 0.0
2014-Oct-18 17:32N 37°57' E 023°35'0 0.0
2014-Oct-18 16:32N 37°57' E 023°35'0 0.0
2014-Oct-18 15:32N 37°57' E 023°35'0 0.0
2014-Oct-18 14:32N 37°57' E 023°35'0 0.0
2014-Oct-18 13:32N 37°57' E 023°35'0 0.0
2014-Oct-18 12:32N 37°57' E 023°35'0 0.0
2014-Oct-18 11:32N 37°57' E 023°35'1 0.9
2014-Oct-18 10:33N 37°57' E 023°35'7 6.6
2014-Oct-18 09:34N 37°51' E 023°39'1615.6
2014-Oct-18 08:33N 37°38' E 023°50'1915.4
2014-Oct-18 07:18N 37°41' E 024°14'1317.6
2014-Oct-18 06:33N 37°50' E 024°27'5316.1
2014-Oct-18 03:17N 38°41' E 024°11'131 3.5
2014-Oct-16 13:20N 40°38' E 022°54'  

Dump ship's entire track history